Time;durP1;ratioP1;P1;durP2;ratioP2;P2;SDS_P1;SDS_P2;PMS_P1;PMS_P2;Temp;Humidity;BMP_temperature;BMP_pressure;BME280_temperature;BME280_humidity;BME280_pressure;Samples;Min_cycle;Max_cycle;Signal;HPM_P1;HPM_P2
2021/07/12 00:01:04;;;;;;;1.57;1.47;;;21.20;99.90;;;;;;6325320;28;20241;-61
2021/07/12 00:04:08;;;;;;;1.63;1.40;;;21.20;99.90;;;;;;6332353;27;20305;-60
2021/07/12 00:07:11;;;;;;;1.13;1.03;;;21.20;99.90;;;;;;6350490;27;20221;-60
2021/07/12 00:10:17;;;;;;;1.43;1.23;;;21.20;99.90;;;;;;6350403;27;20682;-60
2021/07/12 00:13:20;;;;;;;1.87;1.20;;;21.20;99.90;;;;;;6350062;27;20221;-60
2021/07/12 00:16:25;;;;;;;2.03;1.27;;;21.10;99.90;;;;;;6349906;27;20236;-60
2021/07/12 00:19:29;;;;;;;1.40;1.23;;;21.00;99.90;;;;;;6344590;28;20768;-61
2021/07/12 00:22:32;;;;;;;1.57;1.40;;;21.00;99.90;;;;;;6350228;27;20229;-61
2021/07/12 00:25:36;;;;;;;1.40;1.30;;;21.00;99.90;;;;;;6347519;27;20389;-61
2021/07/12 00:28:39;;;;;;;1.80;1.30;;;21.00;99.90;;;;;;6324599;28;20237;-61
2021/07/12 00:31:44;;;;;;;2.60;1.53;;;20.90;99.90;;;;;;6324588;28;20230;-61
2021/07/12 00:34:47;;;;;;;2.33;1.47;;;21.00;99.90;;;;;;6315391;28;20636;-61
2021/07/12 00:37:51;;;;;;;1.40;1.30;;;20.90;99.90;;;;;;6322346;28;20226;-60
2021/07/12 00:40:54;;;;;;;1.10;1.00;;;20.80;99.90;;;;;;6341061;27;20240;-60
2021/07/12 00:43:57;;;;;;;1.80;1.07;;;20.70;99.90;;;;;;6346891;28;20221;-60
2021/07/12 00:47:05;;;;;;;1.93;1.33;;;20.60;99.90;;;;;;6347269;28;20229;-60
2021/07/12 00:50:10;;;;;;;1.70;1.57;;;20.60;99.90;;;;;;6346900;27;20225;-60
2021/07/12 00:53:15;;;;;;;2.77;1.43;;;20.60;99.90;;;;;;6345958;27;20236;-61
2021/07/12 00:56:18;;;;;;;1.40;1.30;;;20.50;99.90;;;;;;6347636;28;20237;-60
2021/07/12 00:59:22;;;;;;;2.43;1.30;;;20.50;99.90;;;;;;6348216;27;20229;-60
2021/07/12 01:02:27;;;;;;;1.90;1.30;;;20.40;99.90;;;;;;6349626;27;20573;-60
2021/07/12 01:05:31;;;;;;;2.33;1.10;;;20.40;99.90;;;;;;6349259;27;20236;-61
2021/07/12 01:08:35;;;;;;;1.93;1.57;;;20.40;99.90;;;;;;6349219;27;20251;-61
2021/07/12 01:11:44;;;;;;;2.57;1.80;;;20.30;99.90;;;;;;6349114;27;20322;-61
2021/07/12 01:14:56;;;;;;;4.40;1.27;;;20.40;99.90;;;;;;6349406;27;20313;-60
2021/07/12 01:18:08;;;;;;;2.67;1.47;;;20.30;99.90;;;;;;6348678;27;20237;-60
2021/07/12 01:21:44;;;;;;;2.70;1.83;;;20.40;99.90;;;;;;6349286;27;20242;-61
2021/07/12 01:25:20;;;;;;;1.73;1.63;;;20.30;99.90;;;;;;6345642;27;20230;-60
2021/07/12 01:29:13;;;;;;;2.40;1.70;;;20.10;99.90;;;;;;6349300;27;20286;-60
2021/07/12 01:32:45;;;;;;;1.83;1.73;;;20.00;99.90;;;;;;6271571;28;20223;-61
2021/07/12 01:36:02;;;;;;;2.80;1.70;;;20.00;99.90;;;;;;6348594;27;20233;-60
2021/07/12 01:39:07;;;;;;;2.00;1.77;;;20.00;99.90;;;;;;6339184;27;20241;-61
2021/07/12 01:42:18;;;;;;;2.47;2.17;;;20.00;99.90;;;;;;6349155;27;20233;-60
2021/07/12 01:45:27;;;;;;;3.23;2.00;;;20.00;99.90;;;;;;6348394;27;20229;-61
2021/07/12 01:48:51;;;;;;;3.73;1.40;;;20.00;99.90;;;;;;6348705;27;20274;-61
2021/07/12 01:52:06;;;;;;;1.87;1.60;;;19.90;99.90;;;;;;6348986;27;20236;-60
2021/07/12 01:55:18;;;;;;;2.60;1.63;;;19.90;99.90;;;;;;6348657;27;20304;-60
2021/07/12 01:58:30;;;;;;;2.23;1.57;;;19.90;99.90;;;;;;6351027;27;20707;-60
2021/07/12 02:01:36;;;;;;;1.87;1.67;;;19.90;99.90;;;;;;6353611;27;20233;-61
2021/07/12 02:04:42;;;;;;;3.73;2.10;;;19.80;99.90;;;;;;6353504;27;20230;-61
2021/07/12 02:07:47;;;;;;;2.37;1.80;;;19.80;99.90;;;;;;6353842;27;20257;-61
2021/07/12 02:10:52;;;;;;;2.70;2.47;;;19.80;99.90;;;;;;6353655;27;20236;-62
2021/07/12 02:13:56;;;;;;;1.83;1.70;;;19.80;99.90;;;;;;6353763;27;20233;-61
2021/07/12 02:17:01;;;;;;;2.27;2.07;;;19.80;99.90;;;;;;6353276;27;20713;-61
2021/07/12 02:20:09;;;;;;;3.90;2.03;;;19.80;99.90;;;;;;6353440;27;20243;-61
2021/07/12 02:23:13;;;;;;;2.20;2.00;;;19.70;99.90;;;;;;6353150;27;20605;-60
2021/07/12 02:26:17;;;;;;;2.20;2.00;;;19.60;99.90;;;;;;6353123;27;20229;-60
2021/07/12 02:29:21;;;;;;;2.30;2.10;;;19.60;99.90;;;;;;6352909;27;20591;-61
2021/07/12 02:32:27;;;;;;;4.50;2.03;;;19.50;99.90;;;;;;6352850;27;20230;-61
2021/07/12 02:35:34;;;;;;;3.03;2.30;;;19.60;99.90;;;;;;6352521;27;20593;-61
2021/07/12 02:38:40;;;;;;;2.77;2.57;;;19.60;99.90;;;;;;6352690;27;20728;-61
2021/07/12 02:41:44;;;;;;;2.70;2.43;;;19.50;99.90;;;;;;6347955;27;20225;-61
2021/07/12 02:44:51;;;;;;;2.50;2.30;;;19.40;99.90;;;;;;6352704;27;20296;-61
2021/07/12 02:47:55;;;;;;;2.37;2.17;;;19.40;99.90;;;;;;6352447;27;20236;-62
2021/07/12 02:51:04;;;;;;;2.70;2.50;;;19.40;99.90;;;;;;6352440;27;20236;-61
2021/07/12 02:54:11;;;;;;;3.23;2.53;;;19.40;99.90;;;;;;6352077;27;20226;-61
2021/07/12 02:57:15;;;;;;;2.63;2.43;;;19.40;99.90;;;;;;6352656;27;20271;-60
2021/07/12 03:00:19;;;;;;;2.73;2.53;;;19.40;99.90;;;;;;6351577;27;20239;-61
2021/07/12 03:03:22;;;;;;;2.60;2.40;;;19.40;99.90;;;;;;6352353;27;20221;-60
2021/07/12 03:06:31;;;;;;;3.10;2.80;;;19.40;99.90;;;;;;6352062;27;20256;-61
2021/07/12 03:09:37;;;;;;;2.47;2.27;;;19.40;99.90;;;;;;6350149;27;20209;-60
2021/07/12 03:12:45;;;;;;;2.67;2.47;;;19.40;99.90;;;;;;6351932;27;20186;-60
2021/07/12 03:15:51;;;;;;;3.50;3.03;;;19.30;99.90;;;;;;6350902;27;20244;-60
2021/07/12 03:18:59;;;;;;;2.20;2.10;;;19.30;99.90;;;;;;6350656;27;20562;-61
2021/07/12 03:22:08;;;;;;;3.30;2.47;;;19.30;99.90;;;;;;6351683;28;20230;-61
2021/07/12 03:25:15;;;;;;;2.60;2.40;;;19.30;99.90;;;;;;6351053;28;20229;-61
2021/07/12 03:28:21;;;;;;;4.07;2.77;;;19.30;99.90;;;;;;6347591;27;20324;-61
2021/07/12 03:31:27;;;;;;;3.00;2.30;;;19.20;99.90;;;;;;6350856;27;20666;-61
2021/07/12 03:34:32;;;;;;;2.90;2.70;;;19.20;99.90;;;;;;6351015;27;20233;-61
2021/07/12 03:37:37;;;;;;;3.10;2.37;;;19.10;99.90;;;;;;6350882;27;20558;-60
2021/07/12 03:40:41;;;;;;;2.93;2.73;;;19.20;99.90;;;;;;6351086;27;20237;-61
2021/07/12 03:43:45;;;;;;;2.63;2.40;;;19.20;99.90;;;;;;6350759;27;20233;-60
2021/07/12 03:46:48;;;;;;;2.97;2.77;;;19.20;99.90;;;;;;6346496;27;20221;-60
2021/07/12 03:49:51;;;;;;;3.77;2.90;;;19.30;99.90;;;;;;6351391;27;20725;-60
2021/07/12 03:53:00;;;;;;;3.47;2.67;;;19.30;99.90;;;;;;6350893;27;20221;-61
2021/07/12 03:56:05;;;;;;;3.10;2.67;;;19.40;99.90;;;;;;6351071;27;20356;-61
2021/07/12 03:59:08;;;;;;;3.37;3.10;;;19.30;99.90;;;;;;6350171;27;20244;-61
2021/07/12 04:02:11;;;;;;;3.47;3.00;;;19.30;99.90;;;;;;6350451;27;20659;-61
2021/07/12 04:05:16;;;;;;;2.83;2.63;;;19.40;99.90;;;;;;6349229;27;20225;-61
2021/07/12 04:08:21;;;;;;;2.70;2.40;;;19.40;99.90;;;;;;6350554;27;20234;-61
2021/07/12 04:11:30;;;;;;;3.23;2.57;;;19.50;99.90;;;;;;6349940;27;20237;-61
2021/07/12 04:14:34;;;;;;;3.67;3.37;;;19.50;99.90;;;;;;6350426;27;20257;-60
2021/07/12 04:17:37;;;;;;;3.20;3.00;;;19.50;99.90;;;;;;6350153;27;20686;-60
2021/07/12 04:20:42;;;;;;;4.53;3.00;;;19.60;99.90;;;;;;6349881;27;20234;-60
2021/07/12 04:23:47;;;;;;;4.37;3.20;;;19.60;99.90;;;;;;6350075;27;20226;-60
2021/07/12 04:26:50;;;;;;;3.20;3.00;;;19.70;99.90;;;;;;6349974;27;20294;-60
2021/07/12 04:29:54;;;;;;;2.80;2.60;;;19.80;99.90;;;;;;6349754;27;20222;-61
2021/07/12 04:32:57;;;;;;;3.10;2.90;;;19.90;99.90;;;;;;6350602;27;20240;-60
2021/07/12 04:36:00;;;;;;;4.00;3.60;;;19.90;99.90;;;;;;6349944;27;20230;-61
2021/07/12 04:39:05;;;;;;;7.70;3.70;;;19.90;99.90;;;;;;6348578;27;20302;-62
2021/07/12 04:42:08;;;;;;;4.23;2.70;;;20.00;99.90;;;;;;6348826;27;20229;-62
2021/07/12 04:45:13;;;;;;;5.00;3.07;;;20.10;99.90;;;;;;6346886;27;20229;-63
2021/07/12 04:48:16;;;;;;;3.50;3.20;;;20.10;99.90;;;;;;6347118;27;20240;-62
2021/07/12 04:51:19;;;;;;;3.20;2.40;;;20.20;99.90;;;;;;6346840;27;20230;-62
2021/07/12 04:54:24;;;;;;;3.90;3.60;;;20.30;99.90;;;;;;6347602;27;20225;-63
2021/07/12 04:57:28;;;;;;;3.60;3.30;;;20.40;99.90;;;;;;6348624;27;20411;-62
2021/07/12 05:00:32;;;;;;;3.13;2.93;;;20.50;99.90;;;;;;6349770;27;20232;-63
2021/07/12 05:03:36;;;;;;;4.33;2.70;;;20.60;99.90;;;;;;6349023;27;20222;-62
2021/07/12 05:06:40;;;;;;;3.77;3.47;;;20.70;99.90;;;;;;6347781;27;20217;-62
2021/07/12 05:09:44;;;;;;;4.13;2.87;;;20.80;99.90;;;;;;6347104;27;20212;-61
2021/07/12 05:12:48;;;;;;;3.53;3.23;;;20.80;99.90;;;;;;6347042;27;20205;-61
2021/07/12 05:15:51;;;;;;;3.23;2.93;;;20.90;99.90;;;;;;6346692;27;20245;-61
2021/07/12 05:18:57;;;;;;;3.50;3.20;;;21.00;99.90;;;;;;6346653;27;20242;-61
2021/07/12 05:22:01;;;;;;;5.10;3.63;;;21.00;99.90;;;;;;6347779;27;20232;-61
2021/07/12 05:25:08;;;;;;;3.77;3.43;;;21.00;99.90;;;;;;6348683;27;20244;-61
2021/07/12 05:28:12;;;;;;;2.87;2.67;;;21.10;99.90;;;;;;6349459;27;20228;-61
2021/07/12 05:31:16;;;;;;;3.10;2.90;;;21.30;99.90;;;;;;6348618;27;20595;-61
2021/07/12 05:34:19;;;;;;;3.67;3.30;;;21.20;99.90;;;;;;6352343;27;20233;-61
2021/07/12 05:37:23;;;;;;;7.53;3.87;;;21.20;99.90;;;;;;6353623;27;20237;-61
2021/07/12 05:40:28;;;;;;;4.10;3.20;;;21.10;99.80;;;;;;6354165;27;20225;-61
2021/07/12 05:43:31;;;;;;;3.47;3.17;;;21.00;99.90;;;;;;6353562;27;20225;-61
2021/07/12 05:46:34;;;;;;;4.97;3.37;;;21.00;99.90;;;;;;6353691;27;20229;-62
2021/07/12 05:49:40;;;;;;;4.20;3.90;;;21.00;99.90;;;;;;6353623;27;20313;-61
2021/07/12 05:52:43;;;;;;;3.87;3.57;;;21.10;99.90;;;;;;6353140;27;20702;-62
2021/07/12 05:55:48;;;;;;;3.63;3.20;;;21.20;99.60;;;;;;6353398;27;20241;-63
2021/07/12 05:58:51;;;;;;;5.83;4.00;;;21.30;99.40;;;;;;6353477;27;20229;-62
2021/07/12 06:01:55;;;;;;;4.20;3.90;;;21.40;99.30;;;;;;6353683;27;20232;-61
2021/07/12 06:04:58;;;;;;;4.97;4.43;;;21.50;98.80;;;;;;6352872;27;20320;-61
2021/07/12 06:08:02;;;;;;;4.70;3.40;;;21.60;98.60;;;;;;6353440;27;20689;-62
2021/07/12 06:11:08;;;;;;;4.33;3.93;;;21.80;98.30;;;;;;6353368;27;20229;-61
2021/07/12 06:14:11;;;;;;;3.77;3.27;;;22.00;98.10;;;;;;6353153;27;20225;-61
2021/07/12 06:17:14;;;;;;;3.53;3.20;;;22.00;98.10;;;;;;6352700;27;20233;-62
2021/07/12 06:20:18;;;;;;;3.70;3.40;;;22.00;97.80;;;;;;6353183;27;20328;-61
2021/07/12 06:23:22;;;;;;;4.30;3.50;;;22.00;97.70;;;;;;6352895;27;20636;-61
2021/07/12 06:26:27;;;;;;;4.87;3.60;;;22.00;98.00;;;;;;6352413;27;20229;-62
2021/07/12 06:29:30;;;;;;;5.13;3.17;;;22.10;98.00;;;;;;6352641;27;20274;-62
2021/07/12 06:32:34;;;;;;;4.37;3.97;;;22.00;98.10;;;;;;6353063;27;20296;-62
2021/07/12 06:35:38;;;;;;;3.73;3.50;;;21.90;98.00;;;;;;6353044;27;20230;-62
2021/07/12 06:38:42;;;;;;;4.50;3.83;;;21.90;98.00;;;;;;6352810;27;20323;-59
2021/07/12 06:41:47;;;;;;;4.30;3.57;;;21.80;98.30;;;;;;6352563;27;20271;-60
2021/07/12 06:44:51;;;;;;;3.60;3.30;;;21.90;98.50;;;;;;6351990;27;20226;-61
2021/07/12 06:47:54;;;;;;;4.20;3.27;;;22.10;98.40;;;;;;6352056;27;20682;-62
2021/07/12 06:50:57;;;;;;;4.73;4.13;;;22.10;98.20;;;;;;6352412;27;20229;-62
2021/07/12 06:54:09;;;;;;;4.00;3.70;;;22.10;98.10;;;;;;6352322;27;20233;-61
2021/07/12 06:57:14;;;;;;;4.60;3.97;;;22.20;98.00;;;;;;6352408;27;20228;-62
2021/07/12 07:00:17;;;;;;;5.00;4.27;;;22.20;98.00;;;;;;6352154;27;20229;-62
2021/07/12 07:03:21;;;;;;;4.57;4.10;;;22.30;97.90;;;;;;6352412;27;20686;-62
2021/07/12 07:06:24;;;;;;;4.73;4.00;;;22.40;97.80;;;;;;6352079;27;20236;-62
2021/07/12 07:09:31;;;;;;;4.80;4.40;;;22.70;97.70;;;;;;6351563;27;20238;-62
2021/07/12 07:12:36;;;;;;;6.63;4.07;;;22.90;97.10;;;;;;6352036;27;20586;-62
2021/07/12 07:15:39;;;;;;;6.47;5.90;;;23.20;96.70;;;;;;6351319;27;20236;-63
2021/07/12 07:18:42;;;;;;;7.70;6.57;;;23.40;96.30;;;;;;6352125;27;20197;-63
2021/07/12 07:21:51;;;;;;;4.47;4.07;;;23.70;95.60;;;;;;6351505;27;20227;-60
2021/07/12 07:24:54;;;;;;;4.93;3.73;;;24.10;95.10;;;;;;6351680;27;20248;-61
2021/07/12 07:28:14;;;;;;;4.87;3.47;;;24.80;93.70;;;;;;6350858;27;20225;-61
2021/07/12 07:31:18;;;;;;;5.10;3.83;;;25.60;92.60;;;;;;6351462;27;20225;-62
2021/07/12 07:34:21;;;;;;;7.77;4.80;;;26.40;90.80;;;;;;6351340;27;20285;-62
2021/07/12 07:37:25;;;;;;;7.50;4.27;;;27.20;87.40;;;;;;6352006;27;20235;-62
2021/07/12 07:40:28;;;;;;;4.33;4.03;;;27.00;86.20;;;;;;6351059;27;20337;-62
2021/07/12 07:43:33;;;;;;;3.90;3.60;;;26.90;85.90;;;;;;6350954;28;20221;-62
2021/07/12 07:46:37;;;;;;;4.67;4.03;;;27.10;85.50;;;;;;6343101;28;20243;-67
2021/07/12 07:49:41;;;;;;;3.93;3.63;;;27.60;83.90;;;;;;6331761;28;20228;-65
2021/07/12 07:52:44;;;;;;;4.27;3.90;;;28.50;81.40;;;;;;6350482;27;20236;-65
2021/07/12 07:55:48;;;;;;;4.40;3.93;;;29.10;78.40;;;;;;6329104;28;20234;-68
2021/07/12 07:58:52;;;;;;;4.27;3.50;;;29.90;75.90;;;;;;6320640;28;20544;-68
2021/07/12 08:01:56;;;;;;;4.17;3.87;;;30.30;72.50;;;;;;6325190;28;20229;-64
2021/07/12 08:05:16;;;;;;;4.97;4.60;;;30.50;69.90;;;;;;6350584;27;20233;-67
2021/07/12 08:08:19;;;;;;;6.20;4.17;;;30.30;68.30;;;;;;6350199;27;20721;-68
2021/07/12 08:11:23;;;;;;;5.53;4.57;;;30.10;68.00;;;;;;6350253;27;20240;-68
2021/07/12 08:14:27;;;;;;;4.57;4.17;;;30.10;68.20;;;;;;6350971;27;20225;-68
2021/07/12 08:17:31;;;;;;;5.10;4.37;;;29.40;69.20;;;;;;6351838;27;20233;-69
2021/07/12 08:20:34;;;;;;;5.30;4.70;;;28.90;71.00;;;;;;6336491;27;20237;-64
2021/07/12 08:23:38;;;;;;;4.97;4.47;;;28.40;73.10;;;;;;6325078;28;20294;-68
2021/07/12 08:26:42;;;;;;;5.40;4.90;;;28.20;74.30;;;;;;6324746;28;20225;-69
2021/07/12 08:29:46;;;;;;;4.97;4.47;;;27.90;75.30;;;;;;6329488;28;20594;-63
2021/07/12 08:32:50;;;;;;;7.00;4.83;;;27.60;76.60;;;;;;6341743;27;20543;-64
2021/07/12 08:35:53;;;;;;;6.87;6.13;;;27.50;76.70;;;;;;6324278;28;20228;-64
2021/07/12 08:38:57;;;;;;;7.37;5.50;;;27.20;77.20;;;;;;6348068;27;20690;-63
2021/07/12 08:42:00;;;;;;;8.20;6.00;;;27.10;78.20;;;;;;6349476;27;20260;-63
2021/07/12 08:45:06;;;;;;;8.47;5.43;;;26.80;79.30;;;;;;6346371;27;20225;-62
2021/07/12 08:48:09;;;;;;;6.40;5.90;;;26.50;79.80;;;;;;6342458;28;20709;-62
2021/07/12 08:51:13;;;;;;;6.73;6.10;;;26.40;80.40;;;;;;6349701;27;20236;-63
2021/07/12 08:54:17;;;;;;;6.73;6.00;;;26.20;81.50;;;;;;6339014;27;20221;-62
2021/07/12 08:57:20;;;;;;;7.20;5.90;;;26.10;82.40;;;;;;6324228;28;20244;-61
2021/07/12 09:00:40;;;;;;;5.93;5.33;;;26.20;83.40;;;;;;6323542;28;20232;-62
2021/07/12 09:03:46;;;;;;;7.67;7.00;;;26.10;83.60;;;;;;6340831;27;20546;-62
2021/07/12 09:07:12;;;;;;;7.40;6.70;;;26.10;84.00;;;;;;6351150;27;20232;-62
2021/07/12 09:10:21;;;;;;;6.63;6.13;;;26.20;83.90;;;;;;6355041;27;20243;-63
2021/07/12 09:13:46;;;;;;;7.50;7.00;;;26.40;83.40;;;;;;6354268;27;20235;-63
2021/07/12 09:16:55;;;;;;;6.47;5.97;;;26.70;82.50;;;;;;6354246;27;20270;-63
2021/07/12 09:19:58;;;;;;;9.60;6.10;;;26.70;81.80;;;;;;6354500;27;20239;-63
2021/07/12 09:23:21;;;;;;;7.57;6.63;;;26.80;81.30;;;;;;6354599;27;20323;-63
2021/07/12 09:26:25;;;;;;;7.03;6.43;;;27.00;81.20;;;;;;6352148;28;20552;-63
2021/07/12 09:29:30;;;;;;;6.63;6.13;;;27.20;81.00;;;;;;6354089;27;20623;-63
2021/07/12 09:32:37;;;;;;;7.63;6.50;;;27.80;79.80;;;;;;6338279;27;20226;-63
2021/07/12 09:35:40;;;;;;;7.63;6.40;;;28.20;77.80;;;;;;6328356;28;20229;-64
2021/07/12 09:38:44;;;;;;;7.00;6.40;;;28.40;76.70;;;;;;6328780;28;20229;-63
2021/07/12 09:41:53;;;;;;;8.40;6.97;;;28.40;76.00;;;;;;6328580;28;20283;-63
2021/07/12 09:45:00;;;;;;;7.70;7.10;;;28.10;76.70;;;;;;6328200;28;20693;-65
2021/07/12 09:48:08;;;;;;;7.70;7.00;;;27.90;77.30;;;;;;6328114;28;20702;-63
2021/07/12 09:51:12;;;;;;;7.63;7.00;;;28.20;76.90;;;;;;6328000;28;20230;-62
2021/07/12 09:54:20;;;;;;;7.43;6.70;;;28.30;76.20;;;;;;6337687;28;20232;-61
2021/07/12 09:57:28;;;;;;;8.23;7.43;;;28.00;77.30;;;;;;6353187;27;20224;-63
2021/07/12 10:00:32;;;;;;;6.97;6.47;;;27.60;78.50;;;;;;6353537;27;20232;-63
2021/07/12 10:03:39;;;;;;;6.73;6.23;;;27.60;79.00;;;;;;6352552;27;20220;-63
2021/07/12 10:06:43;;;;;;;7.50;6.60;;;27.50;79.80;;;;;;6324698;28;20220;-63
2021/07/12 10:09:46;;;;;;;8.77;7.97;;;27.50;79.60;;;;;;6327037;28;20654;-63
2021/07/12 10:12:49;;;;;;;9.00;6.73;;;27.60;79.40;;;;;;6327186;28;20205;-64
2021/07/12 10:15:53;;;;;;;7.70;7.00;;;28.00;78.60;;;;;;6329731;27;20726;-64
2021/07/12 10:18:58;;;;;;;7.80;7.00;;;28.40;77.20;;;;;;6349951;27;20229;-62
2021/07/12 10:22:01;;;;;;;8.07;7.27;;;28.60;75.70;;;;;;6326702;28;20236;-62
2021/07/12 10:25:07;;;;;;;9.30;7.80;;;28.50;76.30;;;;;;6327629;28;20236;-62
2021/07/12 10:28:12;;;;;;;7.30;6.80;;;28.60;76.30;;;;;;6327591;28;20233;-65
2021/07/12 10:31:19;;;;;;;7.73;7.03;;;28.80;75.90;;;;;;6331986;28;20682;-62
2021/07/12 10:34:29;;;;;;;8.10;7.40;;;29.20;74.00;;;;;;6345981;28;20287;-61
2021/07/12 10:37:40;;;;;;;8.00;7.30;;;29.00;73.50;;;;;;6327391;28;20229;-62
2021/07/12 10:40:50;;;;;;;7.80;7.10;;;28.80;74.70;;;;;;6327534;28;20229;-61
2021/07/12 10:43:55;;;;;;;7.67;7.07;;;29.10;73.80;;;;;;6316750;28;20241;-61
2021/07/12 10:46:58;;;;;;;8.43;7.73;;;29.60;73.20;;;;;;6314789;28;20234;-62
2021/07/12 10:50:56;;;;;;;7.73;7.13;;;29.60;71.70;;;;;;6313970;28;20237;-62
2021/07/12 10:54:01;;;;;;;8.33;7.30;;;29.70;70.30;;;;;;6314155;28;20217;-62
2021/07/12 10:57:16;;;;;;;8.13;7.33;;;29.80;70.20;;;;;;6326661;28;20236;-62
2021/07/12 11:00:20;;;;;;;7.47;6.87;;;30.20;70.10;;;;;;6326817;28;20244;-62
2021/07/12 11:03:36;;;;;;;7.13;6.60;;;30.30;69.20;;;;;;6326475;28;20236;-62
2021/07/12 11:06:56;;;;;;;7.77;7.00;;;30.50;67.80;;;;;;6327091;28;20221;-62
2021/07/12 11:10:04;;;;;;;8.07;7.37;;;30.20;67.70;;;;;;6348497;27;20257;-62
2021/07/12 11:13:11;;;;;;;7.63;7.03;;;30.20;68.30;;;;;;6326290;28;20320;-61
2021/07/12 11:16:16;;;;;;;7.87;7.27;;;29.40;70.20;;;;;;6325418;28;20229;-62
2021/07/12 11:19:21;;;;;;;9.63;8.67;;;29.30;71.30;;;;;;6326041;28;20237;-63
2021/07/12 11:22:26;;;;;;;16.93;9.53;;;29.80;70.50;;;;;;6332807;28;20305;-63
2021/07/12 11:25:40;;;;;;;9.37;8.40;;;30.20;70.10;;;;;;6343466;27;20232;-63
2021/07/12 11:28:44;;;;;;;8.30;7.50;;;30.50;68.30;;;;;;6325619;28;20229;-62
2021/07/12 11:31:49;;;;;;;7.33;6.63;;;30.30;68.20;;;;;;6324097;28;20224;-62
2021/07/12 11:34:55;;;;;;;8.30;7.70;;;29.80;69.30;;;;;;6333564;28;20220;-63
2021/07/12 11:38:01;;;;;;;8.10;7.50;;;30.10;69.20;;;;;;6336587;28;20555;-63
2021/07/12 11:41:08;;;;;;;7.80;7.20;;;30.20;67.90;;;;;;6324959;28;20221;-63
2021/07/12 11:44:13;;;;;;;7.77;7.17;;;30.30;67.60;;;;;;6336050;28;20244;-63
2021/07/12 11:47:18;;;;;;;9.00;8.00;;;30.30;67.40;;;;;;6336903;28;20233;-63
2021/07/12 11:50:23;;;;;;;7.77;7.13;;;29.90;68.00;;;;;;6325353;28;20714;-62
2021/07/12 11:53:28;;;;;;;9.23;7.30;;;29.70;69.40;;;;;;6340653;28;20236;-62
2021/07/12 11:56:31;;;;;;;9.90;9.00;;;29.90;69.20;;;;;;6334237;27;20568;-62
2021/07/12 11:59:36;;;;;;;8.90;8.00;;;29.70;69.40;;;;;;6325613;28;20229;-63
2021/07/12 12:02:40;;;;;;;7.63;6.90;;;29.40;70.80;;;;;;6317059;28;20226;-62
2021/07/12 12:05:44;;;;;;;9.40;7.53;;;29.60;70.50;;;;;;6299474;28;20234;-63
2021/07/12 12:08:59;;;;;;;8.53;7.43;;;29.80;69.90;;;;;;6317865;28;20244;-62
2021/07/12 12:12:02;;;;;;;8.13;7.40;;;29.80;69.10;;;;;;6304745;28;20233;-62
2021/07/12 12:15:10;;;;;;;7.20;6.70;;;29.80;68.90;;;;;;6315068;28;20314;-61
2021/07/12 12:18:16;;;;;;;8.53;7.83;;;29.90;69.50;;;;;;6302752;28;20237;-62
2021/07/12 12:21:19;;;;;;;9.13;8.40;;;30.10;69.10;;;;;;6332114;28;20256;-62
2021/07/12 12:24:24;;;;;;;8.50;7.63;;;30.10;69.20;;;;;;6326113;28;20237;-63
2021/07/12 12:27:28;;;;;;;8.17;7.37;;;30.00;68.10;;;;;;6318068;28;20294;-63
2021/07/12 12:30:31;;;;;;;9.33;7.70;;;30.10;68.00;;;;;;6345112;28;20554;-62
2021/07/12 12:33:37;;;;;;;8.50;7.80;;;30.20;68.00;;;;;;6324167;27;20266;-62
2021/07/12 12:36:43;;;;;;;7.87;7.20;;;30.00;69.20;;;;;;6318008;28;20222;-61
2021/07/12 12:39:48;;;;;;;9.63;8.93;;;30.00;69.60;;;;;;6300260;28;20206;-62
2021/07/12 12:42:56;;;;;;;7.83;7.13;;;30.10;68.10;;;;;;6324138;28;20217;-62
2021/07/12 12:46:14;;;;;;;9.63;8.93;;;30.10;68.60;;;;;;6324125;28;20326;-65
2021/07/12 12:49:19;;;;;;;9.90;9.10;;;30.30;67.60;;;;;;6336993;27;20672;-64
2021/07/12 12:52:23;;;;;;;9.00;8.20;;;30.30;67.40;;;;;;6347632;28;20697;-63
2021/07/12 12:55:29;;;;;;;9.80;8.90;;;30.30;67.40;;;;;;6341582;27;20241;-63
2021/07/12 12:58:32;;;;;;;9.97;8.10;;;30.20;67.40;;;;;;6323661;28;20229;-61
2021/07/12 13:01:39;;;;;;;9.47;8.70;;;30.20;67.30;;;;;;6323521;28;20705;-62
2021/07/12 13:04:45;;;;;;;9.67;8.63;;;30.20;67.90;;;;;;6320743;28;20667;-64
2021/07/12 13:07:54;;;;;;;9.33;8.53;;;30.00;68.00;;;;;;6333562;28;20229;-64
2021/07/12 13:11:02;;;;;;;9.60;8.80;;;30.10;68.40;;;;;;6337708;27;20236;-65
2021/07/12 13:14:05;;;;;;;8.13;7.47;;;30.20;67.70;;;;;;6322550;28;20686;-62
2021/07/12 13:17:11;;;;;;;10.53;8.80;;;30.10;68.50;;;;;;6319259;28;20229;-64
2021/07/12 13:20:17;;;;;;;9.67;8.80;;;29.90;68.30;;;;;;6323272;28;20221;-66
2021/07/12 13:23:27;;;;;;;8.90;8.20;;;29.70;69.00;;;;;;6322886;28;20232;-65
2021/07/12 13:26:32;;;;;;;9.20;8.30;;;29.80;69.00;;;;;;6323104;28;20592;-65
2021/07/12 13:29:36;;;;;;;9.23;8.47;;;30.20;68.90;;;;;;6337438;28;20220;-64
2021/07/12 13:32:41;;;;;;;10.33;9.33;;;30.50;67.80;;;;;;6330824;27;20213;-64
2021/07/12 13:35:46;;;;;;;9.80;9.03;;;30.10;68.00;;;;;;6320559;28;20236;-65
2021/07/12 13:38:49;;;;;;;9.60;8.70;;;30.40;67.90;;;;;;6305253;28;20229;-65
2021/07/12 13:41:54;;;;;;;9.20;8.60;;;30.50;67.60;;;;;;6320641;28;20225;-64
2021/07/12 13:44:58;;;;;;;10.67;9.63;;;30.30;67.10;;;;;;6340999;28;20982;-61
2021/07/12 13:48:02;;;;;;;9.60;8.80;;;30.30;67.00;;;;;;6325704;28;20218;-62
2021/07/12 13:51:05;;;;;;;10.23;9.43;;;30.30;67.30;;;;;;6322982;28;20244;-66
2021/07/12 13:54:08;;;;;;;9.90;8.97;;;30.10;67.60;;;;;;6324929;28;20263;-63
2021/07/12 13:57:14;;;;;;;9.70;8.83;;;29.90;68.50;;;;;;6329857;27;20225;-64
2021/07/12 14:00:20;;;;;;;9.83;9.03;;;29.80;68.80;;;;;;6328432;28;20221;-64
2021/07/12 14:03:24;;;;;;;10.60;9.50;;;29.60;69.20;;;;;;6327823;28;20308;-68
2021/07/12 14:06:27;;;;;;;9.83;9.03;;;29.70;69.30;;;;;;6327888;28;20339;-66
2021/07/12 14:09:31;;;;;;;10.30;9.33;;;29.80;68.80;;;;;;6327690;28;20753;-64
2021/07/12 14:12:36;;;;;;;9.90;9.20;;;30.00;68.60;;;;;;6327597;28;20229;-63
2021/07/12 14:15:40;;;;;;;11.50;8.80;;;30.10;67.90;;;;;;6321323;28;20315;-66
2021/07/12 14:18:50;;;;;;;9.03;8.27;;;30.20;68.50;;;;;;6326678;28;20197;-66
2021/07/12 14:21:54;;;;;;;10.13;9.13;;;30.20;69.20;;;;;;6328869;28;20194;-64
2021/07/12 14:24:58;;;;;;;9.80;9.10;;;30.20;68.70;;;;;;6344754;27;20670;-64
2021/07/12 14:28:03;;;;;;;10.13;9.40;;;30.20;68.70;;;;;;6326897;28;20705;-63
2021/07/12 14:31:06;;;;;;;9.90;9.00;;;30.30;68.70;;;;;;6330342;28;20235;-62
2021/07/12 14:34:10;;;;;;;10.83;9.93;;;30.10;69.70;;;;;;6352274;28;20681;-62
2021/07/12 14:37:14;;;;;;;11.07;9.97;;;30.00;69.10;;;;;;6351702;27;20686;-62
2021/07/12 14:40:18;;;;;;;10.50;9.70;;;29.90;70.00;;;;;;6352132;28;20596;-62
2021/07/12 14:43:22;;;;;;;10.60;9.70;;;29.80;71.00;;;;;;6352299;27;20244;-62
2021/07/12 14:46:26;;;;;;;10.70;9.90;;;29.50;72.10;;;;;;6351922;28;20234;-64
2021/07/12 14:49:29;;;;;;;10.07;9.20;;;29.50;71.10;;;;;;6351938;28;20232;-62
2021/07/12 14:52:33;;;;;;;10.73;9.90;;;29.70;71.50;;;;;;6352523;27;20289;-62
2021/07/12 14:55:36;;;;;;;10.90;10.10;;;29.80;72.20;;;;;;6351786;28;20233;-62
2021/07/12 14:58:41;;;;;;;11.90;10.93;;;29.80;71.60;;;;;;6352164;28;20228;-62
2021/07/12 15:01:44;;;;;;;12.30;11.17;;;29.60;71.90;;;;;;6352222;28;20232;-61
2021/07/12 15:04:48;;;;;;;12.07;11.10;;;29.40;72.30;;;;;;6351627;28;20225;-62
2021/07/12 15:07:53;;;;;;;11.83;10.73;;;29.40;72.80;;;;;;6351618;27;20235;-62
2021/07/12 15:10:57;;;;;;;12.07;11.17;;;29.50;72.40;;;;;;6351404;27;20224;-63
2021/07/12 15:14:07;;;;;;;11.33;10.33;;;29.70;72.20;;;;;;6351618;28;20221;-62
2021/07/12 15:17:10;;;;;;;12.50;11.60;;;29.80;72.60;;;;;;6351203;28;20229;-61
2021/07/12 15:20:15;;;;;;;12.10;11.20;;;29.90;71.90;;;;;;6351616;27;20290;-61
2021/07/12 15:23:19;;;;;;;12.93;11.93;;;29.80;71.80;;;;;;6351292;28;20233;-62
2021/07/12 15:26:24;;;;;;;13.20;12.10;;;29.70;72.60;;;;;;6341987;28;20237;-68
2021/07/12 15:29:29;;;;;;;13.73;12.63;;;29.60;73.80;;;;;;6349364;27;20654;-62
2021/07/12 15:32:32;;;;;;;13.03;12.03;;;29.50;74.00;;;;;;6350497;28;20543;-63
2021/07/12 15:35:36;;;;;;;12.60;11.70;;;29.60;73.70;;;;;;6349302;28;20263;-63
2021/07/12 15:38:39;;;;;;;14.27;13.17;;;29.50;73.90;;;;;;6327247;28;20225;-64
2021/07/12 15:41:43;;;;;;;12.50;11.60;;;29.60;73.70;;;;;;6341505;28;20235;-64
2021/07/12 15:44:48;;;;;;;13.10;12.10;;;29.50;74.20;;;;;;6350453;28;20247;-64
2021/07/12 15:47:51;;;;;;;13.03;12.10;;;29.40;75.00;;;;;;6349340;27;20597;-62
2021/07/12 15:50:54;;;;;;;13.80;12.50;;;29.30;76.30;;;;;;6350116;28;20236;-61
2021/07/12 15:53:58;;;;;;;14.10;13.10;;;29.40;76.70;;;;;;6350281;27;20225;-62
2021/07/12 15:57:01;;;;;;;12.70;11.80;;;29.60;76.70;;;;;;6350216;27;20228;-62
2021/07/12 16:00:08;;;;;;;12.23;11.23;;;29.70;75.30;;;;;;6350303;27;20235;-63
2021/07/12 16:03:11;;;;;;;12.73;11.63;;;29.70;75.60;;;;;;6349866;27;20584;-63
2021/07/12 16:06:14;;;;;;;12.97;11.97;;;29.60;75.10;;;;;;6349209;27;20654;-65